CheckWX is a tool to help pilots better visualize weather data.  It is not intended as a substitute for an official pre-flight weather briefing.

04:20:28 UTC

KCFS METAR
Tuscola Area Airport
Caro, Michigan, USA
Current

5 mins ago

KCFS 270415Z AUTO 00000KT 10SM BKN070 12/09 A3010 RMK AO2 T01170093
Observed
May-27 @ 04:15 UTC
Visibility
10 SM
Flight Rules
VFR
Cloud Levels
  • Broken at 7,000' AGL
Temperature
12°C / 54°F
Dewpoint
C / 48°F
Humidity
82%
Altimeter
30.1" Hg
Pressure
1019.32 hPa
Previous

25 mins ago

KCFS 270355Z AUTO 00000KT 10SM SCT070 11/09 A3009 RMK AO2 T01130088
Observed
May-27 @ 03:55 UTC
Visibility
10 SM
Flight Rules
VFR
Cloud Levels
  • Scattered at 7,000' AGL
Temperature
11°C / 52°F
Dewpoint
C / 48°F
Humidity
88%
Altimeter
30.09" Hg
Pressure
1018.92 hPa
Previous

45 mins ago

KCFS 270335Z AUTO 00000KT 10SM CLR 11/10 A3009 RMK AO2 T01140095
Observed
May-27 @ 03:35 UTC
Visibility
10 SM
Flight Rules
VFR
Cloud Levels
  • Clear skies
Temperature
11°C / 52°F
Dewpoint
10°C / 50°F
Humidity
94%
Altimeter
30.09" Hg
Pressure
1018.92 hPa